Time;durP1;ratioP1;P1;durP2;ratioP2;P2;SDS_P1;SDS_P2;PMS_P1;PMS_P2;Temp;Humidity;BMP_temperature;BMP_pressure;BME280_temperature;BME280_humidity;BME280_pressure;Samples;Min_cycle;Max_cycle;Signal;HPM_P1;HPM_P2
2024/01/25 00:04:53;;;;;;;0.50;0.10;;;6.10;95.90;;;;;;20855816;28;20543;-45
2024/01/25 00:14:55;;;;;;;0.30;0.10;;;6.20;96.00;;;;;;20871057;28;20062;-44
2024/01/25 00:24:58;;;;;;;0.05;0.03;;;6.10;96.20;;;;;;20870380;28;20036;-45
2024/01/25 00:35:00;;;;;;;0.30;0.10;;;6.00;96.40;;;;;;20868679;28;20052;-44
2024/01/25 00:45:02;;;;;;;0.90;0.17;;;5.80;96.70;;;;;;20867760;28;20031;-45
2024/01/25 00:55:07;;;;;;;0.20;0.10;;;5.80;97.10;;;;;;20869425;28;20097;-43
2024/01/25 01:05:10;;;;;;;0.10;0.00;;;5.70;97.10;;;;;;20863570;28;20077;-46
2024/01/25 01:15:12;;;;;;;0.20;0.03;;;5.80;97.20;;;;;;20867503;28;20036;-43
2024/01/25 01:25:15;;;;;;;0.03;0.03;;;5.80;97.00;;;;;;20866320;28;20036;-43
2024/01/25 01:35:17;;;;;;;0.25;0.05;;;5.90;96.80;;;;;;20869520;28;20060;-43
2024/01/25 01:45:19;;;;;;;0.00;0.00;;;5.80;97.20;;;;;;20906645;28;20040;-43
2024/01/25 01:55:23;;;;;;;0.85;0.10;;;5.60;97.40;;;;;;20905832;28;20036;-43
2024/01/25 02:05:25;;;;;;;0.10;0.00;;;5.80;97.00;;;;;;20922022;28;20067;-43
2024/01/25 02:15:26;;;;;;;0.10;0.00;;;5.80;97.30;;;;;;20919757;28;21068;-44
2024/01/25 02:25:28;;;;;;;0.10;0.00;;;5.80;97.30;;;;;;20922130;28;20474;-46
2024/01/25 02:35:30;;;;;;;0.10;0.00;;;5.70;97.30;;;;;;20920253;28;20052;-43
2024/01/25 02:45:38;;;;;;;0.00;0.00;;;5.90;97.10;;;;;;20917970;28;20036;-43
2024/01/25 02:55:40;;;;;;;0.13;0.00;;;5.90;97.10;;;;;;20891381;28;20043;-43
2024/01/25 03:05:42;;;;;;;0.20;0.10;;;5.90;97.40;;;;;;20878233;28;20128;-45
2024/01/25 03:15:44;;;;;;;0.00;0.00;;;5.90;97.10;;;;;;20913522;28;20073;-45
2024/01/25 03:25:46;;;;;;;0.03;0.00;;;6.30;96.20;;;;;;20915073;28;20040;-43
2024/01/25 03:35:48;;;;;;;0.00;0.00;;;6.10;96.50;;;;;;20903304;28;20048;-43
2024/01/25 03:45:50;;;;;;;0.10;0.00;;;5.90;96.80;;;;;;20872863;28;20082;-44
2024/01/25 03:55:51;;;;;;;0.05;0.00;;;5.80;97.10;;;;;;20875878;28;20125;-43
2024/01/25 04:05:53;;;;;;;0.10;0.00;;;5.50;97.50;;;;;;20873125;28;20186;-43
2024/01/25 04:15:55;;;;;;;0.08;0.00;;;5.50;97.60;;;;;;20872297;28;20554;-43
2024/01/25 04:25:57;;;;;;;0.00;0.00;;;5.50;97.40;;;;;;20866604;28;20113;-45
2024/01/25 04:35:59;;;;;;;0.13;0.00;;;5.90;97.00;;;;;;20868607;28;20668;-44
2024/01/25 04:46:01;;;;;;;0.15;0.00;;;5.90;96.70;;;;;;20851558;28;20044;-43
2024/01/25 04:56:03;;;;;;;0.40;0.10;;;5.60;97.30;;;;;;20868309;28;20107;-54
2024/01/25 05:06:05;;;;;;;0.00;0.00;;;5.50;97.70;;;;;;20853151;28;20125;-43
2024/01/25 05:16:07;;;;;;;0.00;0.00;;;5.50;97.60;;;;;;20728872;28;20102;-43
2024/01/25 05:26:09;;;;;;;0.00;0.00;;;6.20;96.10;;;;;;20729469;28;20482;-44
2024/01/25 05:36:13;;;;;;;0.10;0.00;;;6.00;96.30;;;;;;20737808;28;20095;-44
2024/01/25 05:46:15;;;;;;;0.00;0.00;;;5.60;96.90;;;;;;20764324;28;20142;-46
2024/01/25 05:56:17;;;;;;;0.05;0.00;;;5.60;97.00;;;;;;20877434;28;20486;-47
2024/01/25 06:06:19;;;;;;;0.00;0.00;;;5.70;96.20;;;;;;20879306;28;20037;-46
2024/01/25 06:16:21;;;;;;;0.00;0.00;;;6.60;94.80;;;;;;20881122;28;20577;-46
2024/01/25 06:26:23;;;;;;;0.10;0.00;;;6.90;94.40;;;;;;20881850;28;20036;-43
2024/01/25 06:36:24;;;;;;;0.00;0.00;;;6.70;94.00;;;;;;20876319;28;20056;-43
2024/01/25 06:46:26;;;;;;;0.13;0.00;;;6.60;94.00;;;;;;20876956;28;20625;-43
2024/01/25 06:56:28;;;;;;;0.00;0.00;;;6.40;93.80;;;;;;20855713;28;20056;-43
2024/01/25 07:06:30;;;;;;;0.00;0.00;;;6.70;94.00;;;;;;20875898;28;20033;-44
2024/01/25 07:16:32;;;;;;;0.10;0.00;;;6.70;94.10;;;;;;20873769;28;20448;-45
2024/01/25 07:26:36;;;;;;;0.00;0.00;;;6.80;94.00;;;;;;20875801;28;21129;-46
2024/01/25 07:36:38;;;;;;;0.05;0.00;;;7.10;94.20;;;;;;20885495;28;20579;-46
2024/01/25 07:46:43;;;;;;;0.10;0.00;;;7.80;92.80;;;;;;20912201;28;20054;-49
2024/01/25 07:56:45;;;;;;;0.22;0.20;;;8.70;91.50;;;;;;20909431;28;20036;-50
2024/01/25 08:06:47;;;;;;;0.08;0.00;;;10.20;89.40;;;;;;20908656;28;20121;-45
2024/01/25 08:16:48;;;;;;;2.72;1.48;;;11.20;86.10;;;;;;20909897;28;20835;-44
2024/01/25 08:26:53;;;;;;;1.63;1.02;;;11.50;83.20;;;;;;20901663;28;20066;-43
2024/01/25 08:36:55;;;;;;;2.20;1.10;;;11.50;83.30;;;;;;20890862;28;20125;-44
2024/01/25 08:46:57;;;;;;;0.68;0.32;;;11.90;83.60;;;;;;20867356;28;20514;-43
2024/01/25 08:56:58;;;;;;;0.77;0.30;;;12.20;80.90;;;;;;20849077;28;20053;-45
2024/01/25 09:07:00;;;;;;;1.25;0.80;;;12.80;83.00;;;;;;20863502;28;20114;-46
2024/01/25 09:17:02;;;;;;;2.60;0.90;;;13.00;83.70;;;;;;20863453;28;20040;-44
2024/01/25 09:27:04;;;;;;;1.30;1.13;;;13.00;84.10;;;;;;20862848;28;20409;-43
2024/01/25 09:37:06;;;;;;;0.70;0.50;;;12.60;83.30;;;;;;20862652;28;21160;-45
2024/01/25 09:47:08;;;;;;;0.45;0.30;;;12.60;85.00;;;;;;20858448;28;20395;-43
2024/01/25 09:57:19;;;;;;;0.50;0.25;;;13.20;83.10;;;;;;20863464;28;21343;-44
2024/01/25 10:07:45;;;;;;;0.45;0.25;;;13.50;83.30;;;;;;20860164;28;20040;-45
2024/01/25 10:17:49;;;;;;;0.40;0.20;;;13.40;84.20;;;;;;20863200;28;20098;-44
2024/01/25 10:27:54;;;;;;;0.73;0.30;;;13.70;84.10;;;;;;20876758;28;20108;-48
2024/01/25 10:37:56;;;;;;;0.63;0.30;;;13.80;81.70;;;;;;20857096;28;20770;-45
2024/01/25 10:47:59;;;;;;;1.55;0.88;;;13.70;82.10;;;;;;20873112;28;20078;-54
2024/01/25 10:58:01;;;;;;;1.10;0.80;;;14.20;83.40;;;;;;20873797;28;20032;-45
2024/01/25 11:08:03;;;;;;;1.75;0.95;;;14.70;81.80;;;;;;20873599;28;20076;-44
2024/01/25 11:18:08;;;;;;;2.28;1.60;;;14.60;82.10;;;;;;20871627;28;20056;-45
2024/01/25 11:28:10;;;;;;;4.75;1.90;;;14.60;81.90;;;;;;20869842;28;20559;-43
2024/01/25 11:38:12;;;;;;;4.15;3.25;;;14.60;82.70;;;;;;20854100;28;20114;-43
2024/01/25 11:48:14;;;;;;;5.15;3.03;;;14.70;82.00;;;;;;20870267;28;20044;-46
2024/01/25 11:58:19;;;;;;;3.50;2.75;;;14.40;81.70;;;;;;20867517;28;20118;-47
2024/01/25 12:08:22;;;;;;;3.38;2.72;;;14.30;82.40;;;;;;20865729;28;20058;-45
2024/01/25 12:18:24;;;;;;;6.25;2.58;;;14.40;82.70;;;;;;20866219;28;20039;-44
2024/01/25 12:28:32;;;;;;;5.13;3.42;;;14.50;83.10;;;;;;20845679;28;20078;-45
2024/01/25 12:38:35;;;;;;;6.13;4.15;;;14.40;83.80;;;;;;20886130;28;20052;-50
2024/01/25 12:48:37;;;;;;;7.95;4.97;;;14.20;83.30;;;;;;20906238;28;20028;-46
2024/01/25 12:58:39;;;;;;;8.07;5.30;;;14.20;84.00;;;;;;20904320;28;20097;-43
2024/01/25 13:08:44;;;;;;;8.48;6.13;;;14.10;85.10;;;;;;20884220;28;20032;-46
2024/01/25 13:18:47;;;;;;;9.98;6.55;;;14.00;85.60;;;;;;20893155;28;20518;-46
2024/01/25 13:28:49;;;;;;;7.93;6.07;;;13.50;86.20;;;;;;20902298;28;20040;-48
2024/01/25 13:38:51;;;;;;;11.05;7.47;;;12.60;86.60;;;;;;20901440;28;20513;-47
2024/01/25 13:48:53;;;;;;;13.00;8.73;;;12.00;88.80;;;;;;20902124;28;20606;-47
2024/01/25 13:58:55;;;;;;;14.65;8.68;;;11.40;90.60;;;;;;20918623;28;20160;-49
2024/01/25 14:08:57;;;;;;;13.23;8.98;;;10.90;90.90;;;;;;20920528;28;20036;-47
2024/01/25 14:19:05;;;;;;;11.40;8.25;;;10.30;91.60;;;;;;20916178;28;20780;-45
2024/01/25 14:29:06;;;;;;;13.32;8.85;;;9.90;92.30;;;;;;20912728;28;20145;-51
2024/01/25 14:39:08;;;;;;;14.88;10.32;;;9.70;92.80;;;;;;20913777;28;20055;-44
2024/01/25 14:49:11;;;;;;;14.20;9.73;;;9.60;92.90;;;;;;20910695;28;20044;-46
2024/01/25 14:59:12;;;;;;;13.90;9.35;;;9.20;93.40;;;;;;20911062;28;21073;-44
2024/01/25 15:09:14;;;;;;;15.82;10.02;;;8.80;94.10;;;;;;20911417;28;20102;-45
2024/01/25 15:19:16;;;;;;;6.85;4.10;;;8.70;94.60;;;;;;20910552;28;20117;-45
2024/01/25 15:29:19;;;;;;;4.82;2.25;;;8.50;94.60;;;;;;20909370;28;20409;-45
2024/01/25 15:39:22;;;;;;;4.70;2.70;;;8.00;95.20;;;;;;20883817;28;20052;-44
2024/01/25 15:49:24;;;;;;;1.60;0.90;;;7.50;95.90;;;;;;20870887;28;20390;-45
2024/01/25 15:59:26;;;;;;;0.70;0.30;;;7.00;96.60;;;;;;20864702;28;20044;-45
2024/01/25 16:09:27;;;;;;;0.30;0.13;;;6.90;96.40;;;;;;20867319;28;20177;-44
2024/01/25 16:19:29;;;;;;;0.75;0.20;;;7.10;95.80;;;;;;20863162;28;20043;-60
2024/01/25 16:29:31;;;;;;;0.35;0.20;;;6.80;96.10;;;;;;20865010;28;20118;-45
2024/01/25 16:39:33;;;;;;;0.55;0.10;;;6.20;97.10;;;;;;20866083;28;20106;-48
2024/01/25 16:49:37;;;;;;;1.13;0.30;;;5.60;98.70;;;;;;20865015;28;20082;-44
2024/01/25 16:59:41;;;;;;;0.65;0.20;;;5.20;99.60;;;;;;20865019;28;20040;-45
2024/01/25 17:09:43;;;;;;;0.65;0.20;;;5.10;99.90;;;;;;20866534;28;20040;-45
2024/01/25 17:19:44;;;;;;;0.52;0.32;;;5.60;99.80;;;;;;20868571;28;20041;-44
2024/01/25 17:29:47;;;;;;;0.68;0.20;;;6.10;98.20;;;;;;20870919;28;20111;-45
2024/01/25 17:39:50;;;;;;;0.40;0.10;;;5.40;99.00;;;;;;20909511;28;20056;-46
2024/01/25 17:49:52;;;;;;;0.25;0.10;;;4.80;99.90;;;;;;20925317;28;20097;-48
2024/01/25 17:59:54;;;;;;;0.60;0.10;;;4.80;99.90;;;;;;20905953;28;20082;-45
2024/01/25 18:09:55;;;;;;;0.40;0.15;;;5.10;99.90;;;;;;20925295;28;20036;-44
2024/01/25 18:19:57;;;;;;;1.42;0.32;;;5.10;99.90;;;;;;20922904;28;20032;-46
2024/01/25 18:29:59;;;;;;;0.50;0.20;;;5.10;99.90;;;;;;20922475;28;21169;-45
2024/01/25 18:40:03;;;;;;;0.20;0.10;;;4.70;99.90;;;;;;20921004;28;20056;-45
2024/01/25 18:50:05;;;;;;;0.30;0.10;;;4.30;99.90;;;;;;20921826;28;20086;-45
2024/01/25 19:00:09;;;;;;;0.20;0.10;;;4.20;99.90;;;;;;20920101;28;20044;-44
2024/01/25 19:10:10;;;;;;;0.40;0.13;;;4.20;99.90;;;;;;20921613;28;20035;-46
2024/01/25 19:20:12;;;;;;;0.40;0.10;;;4.10;99.90;;;;;;20921415;28;20056;-44
2024/01/25 19:30:15;;;;;;;0.13;0.10;;;3.90;99.90;;;;;;20919044;28;20152;-44
2024/01/25 19:40:17;;;;;;;0.30;0.10;;;3.70;99.90;;;;;;20887700;28;20060;-46
2024/01/25 19:50:22;;;;;;;0.20;0.10;;;3.30;99.90;;;;;;20871041;28;20062;-47
2024/01/25 20:00:24;;;;;;;0.57;0.10;;;3.20;99.90;;;;;;20869479;28;20113;-42
2024/01/25 20:10:26;;;;;;;0.73;0.20;;;3.10;99.90;;;;;;20876728;28;20085;-43
2024/01/25 20:20:28;;;;;;;0.30;0.10;;;3.00;99.90;;;;;;20856271;28;20033;-44
2024/01/25 20:30:35;;;;;;;0.32;0.10;;;2.90;99.90;;;;;;20873804;28;20060;-44
2024/01/25 20:40:37;;;;;;;0.60;0.30;;;3.10;99.90;;;;;;20867765;28;20121;-43
2024/01/25 20:50:42;;;;;;;0.32;0.20;;;3.10;99.90;;;;;;20872239;28;20044;-46
2024/01/25 21:00:47;;;;;;;0.55;0.20;;;3.00;99.90;;;;;;20871585;28;20036;-44
2024/01/25 21:10:49;;;;;;;0.30;0.20;;;3.00;99.90;;;;;;20870874;28;20168;-43
2024/01/25 21:20:51;;;;;;;0.17;0.10;;;3.00;99.90;;;;;;20868614;28;20044;-44
2024/01/25 21:30:53;;;;;;;0.20;0.10;;;3.00;99.90;;;;;;20870757;28;20635;-45
2024/01/25 21:40:55;;;;;;;0.43;0.10;;;2.90;99.90;;;;;;20869662;28;20493;-46
2024/01/25 21:50:57;;;;;;;0.00;0.00;;;2.80;99.90;;;;;;20869985;28;20090;-46
2024/01/25 22:00:59;;;;;;;0.10;0.00;;;2.90;99.90;;;;;;20869596;28;20027;-47
2024/01/25 22:11:01;;;;;;;0.10;0.00;;;3.10;99.90;;;;;;20867951;28;21472;-44
2024/01/25 22:21:03;;;;;;;0.03;0.00;;;3.50;99.90;;;;;;20883102;28;20067;-43
2024/01/25 22:31:08;;;;;;;0.00;0.00;;;3.80;99.90;;;;;;20883639;28;20051;-45
2024/01/25 22:41:12;;;;;;;0.10;0.00;;;4.40;99.90;;;;;;20879008;28;20055;-44
2024/01/25 22:51:15;;;;;;;0.20;0.10;;;4.40;99.90;;;;;;20878426;28;20105;-43
2024/01/25 23:01:17;;;;;;;0.20;0.00;;;4.00;99.90;;;;;;20880814;28;20104;-44
2024/01/25 23:11:24;;;;;;;0.00;0.00;;;3.60;99.90;;;;;;20867886;28;20106;-45
2024/01/25 23:21:28;;;;;;;1.65;0.10;;;3.60;99.90;;;;;;20865643;28;20880;-50
2024/01/25 23:31:33;;;;;;;0.03;0.00;;;3.50;99.90;;;;;;20881421;28;20058;-45
2024/01/25 23:41:37;;;;;;;0.00;0.00;;;3.60;99.90;;;;;;20906426;28;20421;-44
2024/01/25 23:51:40;;;;;;;0.10;0.00;;;3.70;99.90;;;;;;20917584;28;20035;-43
